sensor_id;sensor_type;location;lat;lon;timestamp;temperature;humidity
21259;DHT22;10787;53.364;-1.480;2022-12-07T00:01:24;3.20;99.90
21259;DHT22;10787;53.364;-1.480;2022-12-07T00:03:52;3.10;99.90
21259;DHT22;10787;53.364;-1.480;2022-12-07T00:06:20;3.10;99.90
21259;DHT22;10787;53.364;-1.480;2022-12-07T00:08:58;3.10;99.90
21259;DHT22;10787;53.364;-1.480;2022-12-07T00:11:24;3.10;99.90
21259;DHT22;10787;53.364;-1.480;2022-12-07T00:13:55;3.10;99.90
21259;DHT22;10787;53.364;-1.480;2022-12-07T00:16:25;3.10;99.90
21259;DHT22;10787;53.364;-1.480;2022-12-07T00:18:51;3.10;99.90
21259;DHT22;10787;53.364;-1.480;2022-12-07T00:21:22;3.10;99.90
21259;DHT22;10787;53.364;-1.480;2022-12-07T00:23:50;3.10;99.90
21259;DHT22;10787;53.364;-1.480;2022-12-07T00:26:19;3.10;99.90
21259;DHT22;10787;53.364;-1.480;2022-12-07T00:28:49;3.10;99.90
21259;DHT22;10787;53.364;-1.480;2022-12-07T00:31:17;3.10;99.90
21259;DHT22;10787;53.364;-1.480;2022-12-07T00:33:43;3.10;99.90
21259;DHT22;10787;53.364;-1.480;2022-12-07T00:36:14;3.10;99.90
21259;DHT22;10787;53.364;-1.480;2022-12-07T00:38:41;3.10;99.90
21259;DHT22;10787;53.364;-1.480;2022-12-07T00:41:11;3.10;99.90
21259;DHT22;10787;53.364;-1.480;2022-12-07T00:43:38;3.10;99.90
21259;DHT22;10787;53.364;-1.480;2022-12-07T00:46:04;3.10;99.90
21259;DHT22;10787;53.364;-1.480;2022-12-07T00:48:30;3.00;99.90
21259;DHT22;10787;53.364;-1.480;2022-12-07T00:50:57;3.00;99.90
21259;DHT22;10787;53.364;-1.480;2022-12-07T00:53:23;2.90;99.90
21259;DHT22;10787;53.364;-1.480;2022-12-07T00:55:49;2.90;99.90
21259;DHT22;10787;53.364;-1.480;2022-12-07T00:58:15;2.80;99.90
21259;DHT22;10787;53.364;-1.480;2022-12-07T01:00:42;2.80;99.90
21259;DHT22;10787;53.364;-1.480;2022-12-07T01:03:10;2.80;99.90
21259;DHT22;10787;53.364;-1.480;2022-12-07T01:05:37;2.90;99.90
21259;DHT22;10787;53.364;-1.480;2022-12-07T01:08:04;2.90;99.90
21259;DHT22;10787;53.364;-1.480;2022-12-07T01:10:30;2.80;99.90
21259;DHT22;10787;53.364;-1.480;2022-12-07T01:12:58;2.90;99.90
21259;DHT22;10787;53.364;-1.480;2022-12-07T01:15:25;2.80;99.90
21259;DHT22;10787;53.364;-1.480;2022-12-07T01:17:51;2.80;99.90
21259;DHT22;10787;53.364;-1.480;2022-12-07T01:20:17;2.80;99.90
21259;DHT22;10787;53.364;-1.480;2022-12-07T01:22:43;2.70;99.90
21259;DHT22;10787;53.364;-1.480;2022-12-07T01:25:10;2.70;99.90
21259;DHT22;10787;53.364;-1.480;2022-12-07T01:27:37;2.70;99.90
21259;DHT22;10787;53.364;-1.480;2022-12-07T01:30:05;2.70;99.90
21259;DHT22;10787;53.364;-1.480;2022-12-07T01:32:31;2.70;99.90
21259;DHT22;10787;53.364;-1.480;2022-12-07T01:34:57;2.70;99.90
21259;DHT22;10787;53.364;-1.480;2022-12-07T01:37:23;2.70;99.90
21259;DHT22;10787;53.364;-1.480;2022-12-07T01:39:50;2.70;99.90
21259;DHT22;10787;53.364;-1.480;2022-12-07T01:42:18;2.70;99.90
21259;DHT22;10787;53.364;-1.480;2022-12-07T01:47:56;2.80;99.90
21259;DHT22;10787;53.364;-1.480;2022-12-07T01:50:25;2.80;99.90
21259;DHT22;10787;53.364;-1.480;2022-12-07T01:52:54;2.80;99.90
21259;DHT22;10787;53.364;-1.480;2022-12-07T01:55:22;2.80;99.90
21259;DHT22;10787;53.364;-1.480;2022-12-07T01:57:53;2.80;99.90
21259;DHT22;10787;53.364;-1.480;2022-12-07T02:00:20;2.90;99.90
21259;DHT22;10787;53.364;-1.480;2022-12-07T02:05:22;3.10;99.90
21259;DHT22;10787;53.364;-1.480;2022-12-07T02:07:55;3.20;99.90
21259;DHT22;10787;53.364;-1.480;2022-12-07T02:10:28;3.30;99.90
21259;DHT22;10787;53.364;-1.480;2022-12-07T02:13:19;3.30;99.90
21259;DHT22;10787;53.364;-1.480;2022-12-07T02:21:28;3.50;99.90
21259;DHT22;10787;53.364;-1.480;2022-12-07T02:29:36;3.50;99.90
21259;DHT22;10787;53.364;-1.480;2022-12-07T02:32:26;3.40;99.90
21259;DHT22;10787;53.364;-1.480;2022-12-07T02:37:54;3.20;99.90
21259;DHT22;10787;53.364;-1.480;2022-12-07T02:42:51;2.90;99.90
21259;DHT22;10787;53.364;-1.480;2022-12-07T02:45:21;2.90;99.90
21259;DHT22;10787;53.364;-1.480;2022-12-07T02:47:51;2.80;99.90
21259;DHT22;10787;53.364;-1.480;2022-12-07T02:50:20;2.70;99.90
21259;DHT22;10787;53.364;-1.480;2022-12-07T02:52:46;2.60;99.90
21259;DHT22;10787;53.364;-1.480;2022-12-07T02:55:13;2.50;99.90
21259;DHT22;10787;53.364;-1.480;2022-12-07T02:58:05;2.50;99.90
21259;DHT22;10787;53.364;-1.480;2022-12-07T03:00:37;2.40;99.90
21259;DHT22;10787;53.364;-1.480;2022-12-07T03:03:11;2.40;99.90
21259;DHT22;10787;53.364;-1.480;2022-12-07T03:11:09;2.20;99.90
21259;DHT22;10787;53.364;-1.480;2022-12-07T03:17:08;2.10;99.90
21259;DHT22;10787;53.364;-1.480;2022-12-07T03:19:20;2.10;99.90
21259;DHT22;10787;53.364;-1.480;2022-12-07T03:22:05;2.10;99.90
21259;DHT22;10787;53.364;-1.480;2022-12-07T03:24:46;2.00;99.90
21259;DHT22;10787;53.364;-1.480;2022-12-07T03:27:18;2.00;99.90
21259;DHT22;10787;53.364;-1.480;2022-12-07T03:29:51;2.00;99.90
21259;DHT22;10787;53.364;-1.480;2022-12-07T03:34:59;2.00;99.90
21259;DHT22;10787;53.364;-1.480;2022-12-07T03:37:40;1.90;99.90
21259;DHT22;10787;53.364;-1.480;2022-12-07T03:40:21;1.90;99.90
21259;DHT22;10787;53.364;-1.480;2022-12-07T03:42:48;1.90;99.90
21259;DHT22;10787;53.364;-1.480;2022-12-07T03:45:16;1.80;99.90
21259;DHT22;10787;53.364;-1.480;2022-12-07T03:50:28;1.70;99.90
21259;DHT22;10787;53.364;-1.480;2022-12-07T03:53:15;1.70;99.90
21259;DHT22;10787;53.364;-1.480;2022-12-07T03:55:46;1.70;99.90
21259;DHT22;10787;53.364;-1.480;2022-12-07T03:58:19;1.60;99.90
21259;DHT22;10787;53.364;-1.480;2022-12-07T04:00:46;1.60;99.90
21259;DHT22;10787;53.364;-1.480;2022-12-07T04:03:12;1.50;99.90
21259;DHT22;10787;53.364;-1.480;2022-12-07T04:05:39;1.40;99.90
21259;DHT22;10787;53.364;-1.480;2022-12-07T04:08:05;1.40;99.90
21259;DHT22;10787;53.364;-1.480;2022-12-07T04:10:31;1.30;99.90
21259;DHT22;10787;53.364;-1.480;2022-12-07T04:13:01;1.20;99.90
21259;DHT22;10787;53.364;-1.480;2022-12-07T04:15:27;1.20;99.90
21259;DHT22;10787;53.364;-1.480;2022-12-07T04:17:54;1.20;99.90
21259;DHT22;10787;53.364;-1.480;2022-12-07T04:20:20;1.10;99.90
21259;DHT22;10787;53.364;-1.480;2022-12-07T04:22:46;1.10;99.90
21259;DHT22;10787;53.364;-1.480;2022-12-07T04:25:12;1.00;99.90
21259;DHT22;10787;53.364;-1.480;2022-12-07T04:27:38;1.00;99.90
21259;DHT22;10787;53.364;-1.480;2022-12-07T04:30:04;1.00;99.90
21259;DHT22;10787;53.364;-1.480;2022-12-07T04:32:30;1.00;99.90
21259;DHT22;10787;53.364;-1.480;2022-12-07T04:34:57;1.00;99.90
21259;DHT22;10787;53.364;-1.480;2022-12-07T04:37:23;1.00;99.90
21259;DHT22;10787;53.364;-1.480;2022-12-07T04:39:49;1.00;99.90
21259;DHT22;10787;53.364;-1.480;2022-12-07T04:42:16;1.00;99.90
21259;DHT22;10787;53.364;-1.480;2022-12-07T04:44:41;1.00;99.90
21259;DHT22;10787;53.364;-1.480;2022-12-07T04:47:07;0.90;99.90
21259;DHT22;10787;53.364;-1.480;2022-12-07T04:49:33;0.90;99.90
21259;DHT22;10787;53.364;-1.480;2022-12-07T04:51:59;0.90;99.90
21259;DHT22;10787;53.364;-1.480;2022-12-07T04:54:25;0.80;99.90
21259;DHT22;10787;53.364;-1.480;2022-12-07T04:56:51;0.80;99.90
21259;DHT22;10787;53.364;-1.480;2022-12-07T04:59:17;0.80;99.90
21259;DHT22;10787;53.364;-1.480;2022-12-07T05:01:43;0.80;99.90
21259;DHT22;10787;53.364;-1.480;2022-12-07T05:04:09;0.80;99.90
21259;DHT22;10787;53.364;-1.480;2022-12-07T05:06:35;0.80;99.90
21259;DHT22;10787;53.364;-1.480;2022-12-07T05:09:02;0.80;99.90
21259;DHT22;10787;53.364;-1.480;2022-12-07T05:11:28;0.80;99.90
21259;DHT22;10787;53.364;-1.480;2022-12-07T05:14:12;0.70;99.90
21259;DHT22;10787;53.364;-1.480;2022-12-07T05:16:39;0.70;99.90
21259;DHT22;10787;53.364;-1.480;2022-12-07T05:19:06;0.70;99.90
21259;DHT22;10787;53.364;-1.480;2022-12-07T05:21:33;0.70;99.90
21259;DHT22;10787;53.364;-1.480;2022-12-07T05:23:58;0.70;99.90
21259;DHT22;10787;53.364;-1.480;2022-12-07T05:26:24;0.60;99.90
21259;DHT22;10787;53.364;-1.480;2022-12-07T05:28:54;0.60;99.90
21259;DHT22;10787;53.364;-1.480;2022-12-07T05:31:21;0.60;99.90
21259;DHT22;10787;53.364;-1.480;2022-12-07T05:33:47;0.60;99.90
21259;DHT22;10787;53.364;-1.480;2022-12-07T05:36:13;0.50;99.90
21259;DHT22;10787;53.364;-1.480;2022-12-07T05:38:40;0.50;99.90
21259;DHT22;10787;53.364;-1.480;2022-12-07T05:41:07;0.60;99.90
21259;DHT22;10787;53.364;-1.480;2022-12-07T05:43:53;0.60;99.90
21259;DHT22;10787;53.364;-1.480;2022-12-07T05:46:19;0.60;99.90
21259;DHT22;10787;53.364;-1.480;2022-12-07T05:48:44;0.60;99.90
21259;DHT22;10787;53.364;-1.480;2022-12-07T05:51:10;0.60;99.90
21259;DHT22;10787;53.364;-1.480;2022-12-07T05:53:36;0.70;99.90
21259;DHT22;10787;53.364;-1.480;2022-12-07T05:56:02;0.70;99.90
21259;DHT22;10787;53.364;-1.480;2022-12-07T05:58:27;0.70;99.90
21259;DHT22;10787;53.364;-1.480;2022-12-07T06:01:12;0.70;99.90
21259;DHT22;10787;53.364;-1.480;2022-12-07T06:03:37;0.80;99.90
21259;DHT22;10787;53.364;-1.480;2022-12-07T06:06:03;0.80;99.90
21259;DHT22;10787;53.364;-1.480;2022-12-07T06:08:29;0.80;99.90
21259;DHT22;10787;53.364;-1.480;2022-12-07T06:10:55;0.80;99.90
21259;DHT22;10787;53.364;-1.480;2022-12-07T06:13:40;0.80;99.90
21259;DHT22;10787;53.364;-1.480;2022-12-07T06:16:07;0.80;99.90
21259;DHT22;10787;53.364;-1.480;2022-12-07T06:18:32;0.80;99.90
21259;DHT22;10787;53.364;-1.480;2022-12-07T06:20:58;0.80;99.90
21259;DHT22;10787;53.364;-1.480;2022-12-07T06:23:24;0.80;99.90
21259;DHT22;10787;53.364;-1.480;2022-12-07T06:25:50;0.70;99.90
21259;DHT22;10787;53.364;-1.480;2022-12-07T06:28:16;0.60;99.90
21259;DHT22;10787;53.364;-1.480;2022-12-07T06:30:42;0.60;99.90
21259;DHT22;10787;53.364;-1.480;2022-12-07T06:33:07;0.60;99.90
21259;DHT22;10787;53.364;-1.480;2022-12-07T06:35:34;0.60;99.90
21259;DHT22;10787;53.364;-1.480;2022-12-07T06:37:59;0.50;99.90
21259;DHT22;10787;53.364;-1.480;2022-12-07T06:40:25;0.50;99.90
21259;DHT22;10787;53.364;-1.480;2022-12-07T06:42:51;0.50;99.90
21259;DHT22;10787;53.364;-1.480;2022-12-07T06:45:17;0.50;99.90
21259;DHT22;10787;53.364;-1.480;2022-12-07T06:47:43;0.50;99.90
21259;DHT22;10787;53.364;-1.480;2022-12-07T06:50:09;0.60;99.90
21259;DHT22;10787;53.364;-1.480;2022-12-07T06:52:35;1.00;99.90
21259;DHT22;10787;53.364;-1.480;2022-12-07T06:55:00;1.50;99.90
21259;DHT22;10787;53.364;-1.480;2022-12-07T06:57:26;1.70;99.90
21259;DHT22;10787;53.364;-1.480;2022-12-07T06:59:53;1.90;99.90
21259;DHT22;10787;53.364;-1.480;2022-12-07T07:02:19;1.90;99.90
21259;DHT22;10787;53.364;-1.480;2022-12-07T07:04:45;1.90;99.90
21259;DHT22;10787;53.364;-1.480;2022-12-07T07:07:11;1.90;99.90
21259;DHT22;10787;53.364;-1.480;2022-12-07T07:09:38;1.90;99.90
21259;DHT22;10787;53.364;-1.480;2022-12-07T07:12:04;1.70;99.90
21259;DHT22;10787;53.364;-1.480;2022-12-07T07:14:30;1.60;99.90
21259;DHT22;10787;53.364;-1.480;2022-12-07T07:16:55;1.40;99.90
21259;DHT22;10787;53.364;-1.480;2022-12-07T07:19:21;1.30;99.90
21259;DHT22;10787;53.364;-1.480;2022-12-07T07:21:47;1.20;99.90
21259;DHT22;10787;53.364;-1.480;2022-12-07T07:24:13;1.20;99.90
21259;DHT22;10787;53.364;-1.480;2022-12-07T07:26:39;1.20;99.90
21259;DHT22;10787;53.364;-1.480;2022-12-07T07:29:05;1.10;99.90
21259;DHT22;10787;53.364;-1.480;2022-12-07T07:31:31;1.00;99.90
21259;DHT22;10787;53.364;-1.480;2022-12-07T07:33:57;1.00;99.90
21259;DHT22;10787;53.364;-1.480;2022-12-07T07:36:23;0.90;99.90
21259;DHT22;10787;53.364;-1.480;2022-12-07T07:38:48;0.90;99.90
21259;DHT22;10787;53.364;-1.480;2022-12-07T07:41:14;0.90;99.90
21259;DHT22;10787;53.364;-1.480;2022-12-07T07:43:40;0.80;99.90
21259;DHT22;10787;53.364;-1.480;2022-12-07T07:46:05;0.70;99.90
21259;DHT22;10787;53.364;-1.480;2022-12-07T07:48:31;0.60;99.90
21259;DHT22;10787;53.364;-1.480;2022-12-07T07:50:58;0.60;99.90
21259;DHT22;10787;53.364;-1.480;2022-12-07T07:53:23;0.50;99.90
21259;DHT22;10787;53.364;-1.480;2022-12-07T07:55:51;0.50;99.90
21259;DHT22;10787;53.364;-1.480;2022-12-07T07:58:18;0.60;99.90
21259;DHT22;10787;53.364;-1.480;2022-12-07T08:00:44;0.70;99.90
21259;DHT22;10787;53.364;-1.480;2022-12-07T08:03:10;0.70;99.90
21259;DHT22;10787;53.364;-1.480;2022-12-07T08:05:37;0.70;99.90
21259;DHT22;10787;53.364;-1.480;2022-12-07T08:08:04;0.70;99.90
21259;DHT22;10787;53.364;-1.480;2022-12-07T08:10:30;0.80;99.90
21259;DHT22;10787;53.364;-1.480;2022-12-07T08:12:58;0.80;99.90
21259;DHT22;10787;53.364;-1.480;2022-12-07T08:15:37;0.90;99.90
21259;DHT22;10787;53.364;-1.480;2022-12-07T08:18:03;0.90;99.90
21259;DHT22;10787;53.364;-1.480;2022-12-07T08:20:30;0.90;99.90
21259;DHT22;10787;53.364;-1.480;2022-12-07T08:22:57;1.00;99.90
21259;DHT22;10787;53.364;-1.480;2022-12-07T08:25:24;1.00;99.90
21259;DHT22;10787;53.364;-1.480;2022-12-07T08:27:51;1.10;99.90
21259;DHT22;10787;53.364;-1.480;2022-12-07T08:30:18;1.10;99.90
21259;DHT22;10787;53.364;-1.480;2022-12-07T08:32:47;1.10;99.90
21259;DHT22;10787;53.364;-1.480;2022-12-07T08:35:14;1.20;99.90
21259;DHT22;10787;53.364;-1.480;2022-12-07T08:37:40;1.20;99.90
21259;DHT22;10787;53.364;-1.480;2022-12-07T08:40:08;1.20;99.90
21259;DHT22;10787;53.364;-1.480;2022-12-07T08:42:35;1.30;99.90
21259;DHT22;10787;53.364;-1.480;2022-12-07T08:45:14;1.30;99.90
21259;DHT22;10787;53.364;-1.480;2022-12-07T08:48:08;1.50;99.90
21259;DHT22;10787;53.364;-1.480;2022-12-07T08:50:36;1.50;99.90
21259;DHT22;10787;53.364;-1.480;2022-12-07T08:53:04;1.60;99.90
21259;DHT22;10787;53.364;-1.480;2022-12-07T08:55:30;1.60;99.90
21259;DHT22;10787;53.364;-1.480;2022-12-07T08:58:00;1.70;99.90
21259;DHT22;10787;53.364;-1.480;2022-12-07T09:00:28;1.70;99.90
21259;DHT22;10787;53.364;-1.480;2022-12-07T09:02:54;1.80;99.90
21259;DHT22;10787;53.364;-1.480;2022-12-07T09:05:20;1.80;99.90
21259;DHT22;10787;53.364;-1.480;2022-12-07T09:07:50;1.80;99.90
21259;DHT22;10787;53.364;-1.480;2022-12-07T09:10:17;1.90;99.90
21259;DHT22;10787;53.364;-1.480;2022-12-07T09:12:43;1.90;99.90
21259;DHT22;10787;53.364;-1.480;2022-12-07T09:15:11;2.00;99.90
21259;DHT22;10787;53.364;-1.480;2022-12-07T09:17:37;2.00;99.90
21259;DHT22;10787;53.364;-1.480;2022-12-07T09:20:05;2.10;99.90
21259;DHT22;10787;53.364;-1.480;2022-12-07T09:22:31;2.10;99.90
21259;DHT22;10787;53.364;-1.480;2022-12-07T09:24:58;2.20;99.90
21259;DHT22;10787;53.364;-1.480;2022-12-07T09:27:24;2.30;99.90
21259;DHT22;10787;53.364;-1.480;2022-12-07T09:29:50;2.30;99.90
21259;DHT22;10787;53.364;-1.480;2022-12-07T09:32:28;2.40;99.90
21259;DHT22;10787;53.364;-1.480;2022-12-07T09:34:54;2.40;99.90
21259;DHT22;10787;53.364;-1.480;2022-12-07T09:37:20;2.40;99.90
21259;DHT22;10787;53.364;-1.480;2022-12-07T09:39:46;2.40;99.90
21259;DHT22;10787;53.364;-1.480;2022-12-07T09:42:28;2.40;99.90
21259;DHT22;10787;53.364;-1.480;2022-12-07T09:44:55;2.40;99.90
21259;DHT22;10787;53.364;-1.480;2022-12-07T09:47:21;2.50;99.90
21259;DHT22;10787;53.364;-1.480;2022-12-07T09:49:49;2.60;99.90
21259;DHT22;10787;53.364;-1.480;2022-12-07T09:52:27;2.70;99.90
21259;DHT22;10787;53.364;-1.480;2022-12-07T09:54:54;2.70;99.90
21259;DHT22;10787;53.364;-1.480;2022-12-07T09:57:30;2.80;99.90
21259;DHT22;10787;53.364;-1.480;2022-12-07T10:00:01;2.90;99.90
21259;DHT22;10787;53.364;-1.480;2022-12-07T10:02:40;3.00;99.90
21259;DHT22;10787;53.364;-1.480;2022-12-07T10:05:18;3.10;99.90
21259;DHT22;10787;53.364;-1.480;2022-12-07T10:07:45;3.10;99.90
21259;DHT22;10787;53.364;-1.480;2022-12-07T10:10:23;3.20;99.90
21259;DHT22;10787;53.364;-1.480;2022-12-07T10:15:38;3.30;99.90
21259;DHT22;10787;53.364;-1.480;2022-12-07T10:18:27;3.30;99.90
21259;DHT22;10787;53.364;-1.480;2022-12-07T10:21:21;3.40;99.90
21259;DHT22;10787;53.364;-1.480;2022-12-07T10:29:23;3.50;99.90
21259;DHT22;10787;53.364;-1.480;2022-12-07T10:32:24;3.60;99.90
21259;DHT22;10787;53.364;-1.480;2022-12-07T10:34:52;3.70;99.90
21259;DHT22;10787;53.364;-1.480;2022-12-07T10:37:41;3.80;99.90
21259;DHT22;10787;53.364;-1.480;2022-12-07T10:43:05;3.90;99.90
21259;DHT22;10787;53.364;-1.480;2022-12-07T10:45:32;3.90;99.90
21259;DHT22;10787;53.364;-1.480;2022-12-07T10:48:11;4.00;99.90
21259;DHT22;10787;53.364;-1.480;2022-12-07T10:59:01;4.10;99.90
21259;DHT22;10787;53.364;-1.480;2022-12-07T11:02:06;4.20;99.90
21259;DHT22;10787;53.364;-1.480;2022-12-07T11:20:37;4.50;99.90
21259;DHT22;10787;53.364;-1.480;2022-12-07T11:23:25;4.60;99.90
21259;DHT22;10787;53.364;-1.480;2022-12-07T11:37:01;8.80;99.90
21259;DHT22;10787;53.364;-1.480;2022-12-07T11:39:41;10.00;99.90
21259;DHT22;10787;53.364;-1.480;2022-12-07T11:42:21;11.00;99.90
21259;DHT22;10787;53.364;-1.480;2022-12-07T11:45:00;12.10;99.90
21259;DHT22;10787;53.364;-1.480;2022-12-07T11:58:44;12.20;99.90
21259;DHT22;10787;53.364;-1.480;2022-12-07T12:03:49;13.10;99.90
21259;DHT22;10787;53.364;-1.480;2022-12-07T12:06:17;13.60;99.90
21259;DHT22;10787;53.364;-1.480;2022-12-07T12:08:53;14.60;99.90
21259;DHT22;10787;53.364;-1.480;2022-12-07T12:19:45;17.80;99.90
21259;DHT22;10787;53.364;-1.480;2022-12-07T12:22:37;17.70;99.90
21259;DHT22;10787;53.364;-1.480;2022-12-07T12:25:07;17.70;99.90
21259;DHT22;10787;53.364;-1.480;2022-12-07T12:27:39;17.80;99.90
21259;DHT22;10787;53.364;-1.480;2022-12-07T12:30:23;17.30;99.90
21259;DHT22;10787;53.364;-1.480;2022-12-07T12:32:49;17.60;99.90
21259;DHT22;10787;53.364;-1.480;2022-12-07T12:35:34;18.00;99.90
21259;DHT22;10787;53.364;-1.480;2022-12-07T12:38:24;18.20;99.90
21259;DHT22;10787;53.364;-1.480;2022-12-07T12:40:51;17.60;99.90
21259;DHT22;10787;53.364;-1.480;2022-12-07T12:43:46;18.20;99.90
21259;DHT22;10787;53.364;-1.480;2022-12-07T12:49:30;17.30;99.90
21259;DHT22;10787;53.364;-1.480;2022-12-07T12:52:45;17.60;99.90
21259;DHT22;10787;53.364;-1.480;2022-12-07T12:57:35;17.50;99.90
21259;DHT22;10787;53.364;-1.480;2022-12-07T13:00:19;17.90;99.90
21259;DHT22;10787;53.364;-1.480;2022-12-07T13:05:20;17.60;99.90
21259;DHT22;10787;53.364;-1.480;2022-12-07T13:15:43;18.60;99.90
21259;DHT22;10787;53.364;-1.480;2022-12-07T13:28:43;17.80;99.90
21259;DHT22;10787;53.364;-1.480;2022-12-07T13:33:58;17.80;99.90
21259;DHT22;10787;53.364;-1.480;2022-12-07T13:36:27;17.70;99.90
21259;DHT22;10787;53.364;-1.480;2022-12-07T13:39:00;18.10;99.90
21259;DHT22;10787;53.364;-1.480;2022-12-07T13:41:28;18.20;99.90
21259;DHT22;10787;53.364;-1.480;2022-12-07T13:46:41;17.70;99.90
21259;DHT22;10787;53.364;-1.480;2022-12-07T13:51:48;17.40;99.90
21259;DHT22;10787;53.364;-1.480;2022-12-07T13:54:15;17.40;99.90
21259;DHT22;10787;53.364;-1.480;2022-12-07T13:56:41;17.50;99.90
21259;DHT22;10787;53.364;-1.480;2022-12-07T13:59:17;17.20;99.90
21259;DHT22;10787;53.364;-1.480;2022-12-07T14:01:45;16.60;99.90
21259;DHT22;10787;53.364;-1.480;2022-12-07T14:04:34;16.30;99.90
21259;DHT22;10787;53.364;-1.480;2022-12-07T14:07:18;16.60;99.90
21259;DHT22;10787;53.364;-1.480;2022-12-07T14:09:57;16.80;99.90
21259;DHT22;10787;53.364;-1.480;2022-12-07T14:12:25;16.60;99.90
21259;DHT22;10787;53.364;-1.480;2022-12-07T14:14:53;16.80;99.90
21259;DHT22;10787;53.364;-1.480;2022-12-07T14:17:23;16.60;99.90
21259;DHT22;10787;53.364;-1.480;2022-12-07T14:19:58;16.50;99.90
21259;DHT22;10787;53.364;-1.480;2022-12-07T14:22:35;16.70;99.90
21259;DHT22;10787;53.364;-1.480;2022-12-07T14:27:39;16.70;99.90
21259;DHT22;10787;53.364;-1.480;2022-12-07T14:30:05;16.60;99.90
21259;DHT22;10787;53.364;-1.480;2022-12-07T14:32:34;16.60;99.90
21259;DHT22;10787;53.364;-1.480;2022-12-07T14:35:01;16.50;99.90
21259;DHT22;10787;53.364;-1.480;2022-12-07T14:37:28;16.20;99.90
21259;DHT22;10787;53.364;-1.480;2022-12-07T14:39:55;15.80;99.90
21259;DHT22;10787;53.364;-1.480;2022-12-07T14:42:24;15.70;99.90
21259;DHT22;10787;53.364;-1.480;2022-12-07T14:45:17;15.20;99.90
21259;DHT22;10787;53.364;-1.480;2022-12-07T14:47:44;14.60;99.90
21259;DHT22;10787;53.364;-1.480;2022-12-07T14:50:15;14.30;99.90
21259;DHT22;10787;53.364;-1.480;2022-12-07T14:52:43;14.20;99.90
21259;DHT22;10787;53.364;-1.480;2022-12-07T14:55:23;14.00;99.90
21259;DHT22;10787;53.364;-1.480;2022-12-07T14:57:50;13.70;99.90
21259;DHT22;10787;53.364;-1.480;2022-12-07T15:00:17;13.20;99.90
21259;DHT22;10787;53.364;-1.480;2022-12-07T15:02:47;12.50;99.90
21259;DHT22;10787;53.364;-1.480;2022-12-07T15:05:13;11.30;99.90
21259;DHT22;10787;53.364;-1.480;2022-12-07T15:07:39;10.10;99.90
21259;DHT22;10787;53.364;-1.480;2022-12-07T15:10:08;9.10;99.90
21259;DHT22;10787;53.364;-1.480;2022-12-07T15:12:38;8.20;99.90
21259;DHT22;10787;53.364;-1.480;2022-12-07T15:15:04;7.60;99.90
21259;DHT22;10787;53.364;-1.480;2022-12-07T15:17:30;7.10;99.90
21259;DHT22;10787;53.364;-1.480;2022-12-07T15:19:58;6.50;99.90
21259;DHT22;10787;53.364;-1.480;2022-12-07T15:22:24;6.10;99.90
21259;DHT22;10787;53.364;-1.480;2022-12-07T15:24:49;5.70;99.90
21259;DHT22;10787;53.364;-1.480;2022-12-07T15:27:15;5.50;99.90
21259;DHT22;10787;53.364;-1.480;2022-12-07T15:29:42;5.30;99.90
21259;DHT22;10787;53.364;-1.480;2022-12-07T15:32:07;5.10;99.90
21259;DHT22;10787;53.364;-1.480;2022-12-07T15:34:33;4.90;99.90
21259;DHT22;10787;53.364;-1.480;2022-12-07T15:36:59;4.80;99.90
21259;DHT22;10787;53.364;-1.480;2022-12-07T15:39:25;4.70;99.90
21259;DHT22;10787;53.364;-1.480;2022-12-07T15:41:51;4.50;99.90
21259;DHT22;10787;53.364;-1.480;2022-12-07T15:44:17;4.30;99.90
21259;DHT22;10787;53.364;-1.480;2022-12-07T15:47:11;4.30;99.90
21259;DHT22;10787;53.364;-1.480;2022-12-07T15:49:36;4.20;99.90
21259;DHT22;10787;53.364;-1.480;2022-12-07T15:52:02;4.10;99.90
21259;DHT22;10787;53.364;-1.480;2022-12-07T15:54:29;4.00;99.90
21259;DHT22;10787;53.364;-1.480;2022-12-07T15:56:56;3.90;99.90
21259;DHT22;10787;53.364;-1.480;2022-12-07T15:59:22;3.80;99.90
21259;DHT22;10787;53.364;-1.480;2022-12-07T16:01:48;3.70;99.90
21259;DHT22;10787;53.364;-1.480;2022-12-07T16:04:14;3.70;99.90
21259;DHT22;10787;53.364;-1.480;2022-12-07T16:06:40;3.70;99.90
21259;DHT22;10787;53.364;-1.480;2022-12-07T16:09:06;3.70;99.90
21259;DHT22;10787;53.364;-1.480;2022-12-07T16:11:34;3.70;99.90
21259;DHT22;10787;53.364;-1.480;2022-12-07T16:14:01;3.80;99.90
21259;DHT22;10787;53.364;-1.480;2022-12-07T16:16:28;4.00;99.90
21259;DHT22;10787;53.364;-1.480;2022-12-07T16:18:54;4.10;99.90
21259;DHT22;10787;53.364;-1.480;2022-12-07T16:21:20;4.30;99.90
21259;DHT22;10787;53.364;-1.480;2022-12-07T16:23:46;4.30;99.90
21259;DHT22;10787;53.364;-1.480;2022-12-07T16:26:15;4.30;99.90
21259;DHT22;10787;53.364;-1.480;2022-12-07T16:28:42;4.30;99.90
21259;DHT22;10787;53.364;-1.480;2022-12-07T16:31:13;4.30;99.90
21259;DHT22;10787;53.364;-1.480;2022-12-07T16:33:41;4.20;99.90
21259;DHT22;10787;53.364;-1.480;2022-12-07T16:36:09;4.20;99.90
21259;DHT22;10787;53.364;-1.480;2022-12-07T16:38:36;4.10;99.90
21259;DHT22;10787;53.364;-1.480;2022-12-07T16:41:03;4.00;99.90
21259;DHT22;10787;53.364;-1.480;2022-12-07T16:43:28;4.00;99.90
21259;DHT22;10787;53.364;-1.480;2022-12-07T16:45:54;3.90;99.90
21259;DHT22;10787;53.364;-1.480;2022-12-07T16:48:20;3.80;99.90
21259;DHT22;10787;53.364;-1.480;2022-12-07T16:50:46;3.70;99.90
21259;DHT22;10787;53.364;-1.480;2022-12-07T16:53:13;3.60;99.90
21259;DHT22;10787;53.364;-1.480;2022-12-07T16:55:43;3.50;99.90
21259;DHT22;10787;53.364;-1.480;2022-12-07T16:58:10;3.40;99.90
21259;DHT22;10787;53.364;-1.480;2022-12-07T17:00:36;3.30;99.90
21259;DHT22;10787;53.364;-1.480;2022-12-07T17:03:03;3.20;99.90
21259;DHT22;10787;53.364;-1.480;2022-12-07T17:05:31;3.20;99.90
21259;DHT22;10787;53.364;-1.480;2022-12-07T17:07:57;3.00;99.90
21259;DHT22;10787;53.364;-1.480;2022-12-07T17:10:24;3.00;99.90
21259;DHT22;10787;53.364;-1.480;2022-12-07T17:12:50;3.00;99.90
21259;DHT22;10787;53.364;-1.480;2022-12-07T17:15:16;2.90;99.90
21259;DHT22;10787;53.364;-1.480;2022-12-07T17:18:07;2.80;99.90
21259;DHT22;10787;53.364;-1.480;2022-12-07T17:20:32;2.80;99.90
21259;DHT22;10787;53.364;-1.480;2022-12-07T17:22:58;2.70;99.90
21259;DHT22;10787;53.364;-1.480;2022-12-07T17:25:24;2.70;99.90
21259;DHT22;10787;53.364;-1.480;2022-12-07T17:27:50;2.70;99.90
21259;DHT22;10787;53.364;-1.480;2022-12-07T17:30:16;2.60;99.90
21259;DHT22;10787;53.364;-1.480;2022-12-07T17:32:42;2.60;99.90
21259;DHT22;10787;53.364;-1.480;2022-12-07T17:35:08;2.60;99.90
21259;DHT22;10787;53.364;-1.480;2022-12-07T17:37:34;2.50;99.90
21259;DHT22;10787;53.364;-1.480;2022-12-07T17:40:00;2.50;99.90
21259;DHT22;10787;53.364;-1.480;2022-12-07T17:42:27;2.50;99.90
21259;DHT22;10787;53.364;-1.480;2022-12-07T17:45:03;2.40;99.90
21259;DHT22;10787;53.364;-1.480;2022-12-07T17:47:30;2.40;99.90
21259;DHT22;10787;53.364;-1.480;2022-12-07T17:49:56;2.30;99.90
21259;DHT22;10787;53.364;-1.480;2022-12-07T17:52:22;2.30;99.90
21259;DHT22;10787;53.364;-1.480;2022-12-07T17:55:06;2.30;99.90
21259;DHT22;10787;53.364;-1.480;2022-12-07T17:57:32;2.20;99.90
21259;DHT22;10787;53.364;-1.480;2022-12-07T17:59:58;2.20;99.90
21259;DHT22;10787;53.364;-1.480;2022-12-07T18:02:25;2.20;99.90
21259;DHT22;10787;53.364;-1.480;2022-12-07T18:04:51;2.10;99.90